Time;durP1;ratioP1;P1;durP2;ratioP2;P2;SDS_P1;SDS_P2;PMS_P1;PMS_P2;Temp;Humidity;BMP_temperature;BMP_pressure;BME280_temperature;BME280_humidity;BME280_pressure;Samples;Min_cycle;Max_cycle;Signal;HPM_P1;HPM_P2
2022/06/21 00:01:31;;;;;;;3.80;3.00;;;16.90;26.50;;;;;;5052231;28;20437;-70
2022/06/21 00:03:56;;;;;;;2.93;2.63;;;16.80;26.30;;;;;;5052182;28;20409;-68
2022/06/21 00:06:25;;;;;;;5.97;3.03;;;16.70;26.50;;;;;;5052224;28;20808;-71
2022/06/21 00:08:51;;;;;;;3.03;2.73;;;16.60;26.60;;;;;;5050545;28;20720;-68
2022/06/21 00:11:25;;;;;;;3.53;2.67;;;16.40;27.00;;;;;;5052056;28;20443;-69
2022/06/21 00:13:50;;;;;;;3.07;2.47;;;16.40;27.50;;;;;;5052083;28;20409;-68
2022/06/21 00:16:16;;;;;;;3.17;2.00;;;16.40;27.20;;;;;;5051681;28;20941;-67
2022/06/21 00:18:44;;;;;;;2.40;2.03;;;16.10;28.00;;;;;;5050708;28;20569;-68
2022/06/21 00:21:23;;;;;;;3.60;3.00;;;16.00;28.50;;;;;;5051908;28;20440;-69
2022/06/21 00:23:50;;;;;;;2.90;2.33;;;16.00;28.80;;;;;;5051996;28;20418;-68
2022/06/21 00:26:17;;;;;;;4.03;2.90;;;16.00;28.80;;;;;;5051528;28;20459;-69
2022/06/21 00:28:43;;;;;;;3.40;2.33;;;15.80;29.50;;;;;;5050227;28;20424;-68
2022/06/21 00:31:22;;;;;;;2.63;2.40;;;15.80;29.80;;;;;;5050414;28;20956;-68
2022/06/21 00:33:48;;;;;;;4.50;2.50;;;15.80;30.00;;;;;;5051750;28;20191;-68
2022/06/21 00:36:28;;;;;;;2.87;2.57;;;15.80;29.80;;;;;;5049685;28;20436;-69
2022/06/21 00:38:55;;;;;;;3.40;2.07;;;15.80;30.00;;;;;;5051597;28;20450;-68
2022/06/21 00:41:40;;;;;;;2.50;2.23;;;15.80;30.80;;;;;;5051963;28;20488;-68
2022/06/21 00:44:11;;;;;;;4.00;2.57;;;15.70;30.80;;;;;;5052025;28;20493;-69
2022/06/21 00:46:44;;;;;;;2.60;2.20;;;15.50;31.30;;;;;;5049266;28;20495;-68
2022/06/21 00:49:21;;;;;;;5.07;2.83;;;15.40;32.10;;;;;;5033778;28;20792;-70
2022/06/21 00:51:48;;;;;;;3.80;1.93;;;15.50;31.80;;;;;;5051486;28;20469;-69
2022/06/21 00:54:23;;;;;;;3.30;2.23;;;15.60;31.70;;;;;;5051758;28;20430;-69
2022/06/21 00:57:04;;;;;;;2.03;1.77;;;15.70;30.80;;;;;;5051855;28;20494;-69
2022/06/21 00:59:32;;;;;;;3.30;2.60;;;15.80;30.80;;;;;;5051505;28;20457;-70
2022/06/21 01:02:03;;;;;;;3.00;2.13;;;15.90;30.20;;;;;;5051697;28;20785;-69
2022/06/21 01:04:34;;;;;;;2.20;2.00;;;15.80;30.80;;;;;;5051462;28;20424;-69
2022/06/21 01:07:03;;;;;;;2.60;2.40;;;15.70;30.80;;;;;;5051470;28;20458;-70
2022/06/21 01:09:40;;;;;;;3.50;1.80;;;15.80;30.40;;;;;;5050189;28;20427;-69
2022/06/21 01:12:09;;;;;;;2.70;2.03;;;15.70;30.80;;;;;;5051572;28;20454;-69
2022/06/21 01:14:37;;;;;;;2.47;2.13;;;15.80;30.30;;;;;;5049884;28;20919;-70
2022/06/21 01:17:05;;;;;;;2.70;2.40;;;15.90;30.00;;;;;;5050622;28;20417;-70
2022/06/21 01:19:42;;;;;;;2.70;2.23;;;16.00;29.40;;;;;;5050209;28;20432;-70
2022/06/21 01:22:36;;;;;;;2.40;1.90;;;16.00;30.00;;;;;;5050682;28;20420;-70
2022/06/21 01:25:32;;;;;;;2.30;2.10;;;16.20;29.20;;;;;;5051222;28;20468;-69
2022/06/21 01:27:58;;;;;;;2.63;2.17;;;16.20;28.80;;;;;;5051330;28;20444;-70
2022/06/21 01:30:26;;;;;;;2.73;2.40;;;15.90;29.80;;;;;;5050240;28;20471;-69
2022/06/21 01:32:53;;;;;;;2.47;2.13;;;15.80;30.60;;;;;;5051360;28;20220;-70
2022/06/21 01:35:41;;;;;;;2.50;2.20;;;15.80;30.60;;;;;;5050914;28;20519;-70
2022/06/21 01:38:12;;;;;;;2.30;1.97;;;15.80;30.40;;;;;;5049819;28;20428;-69
2022/06/21 01:40:42;;;;;;;2.70;2.37;;;15.80;30.30;;;;;;5051328;28;20441;-69
2022/06/21 01:43:11;;;;;;;2.50;2.00;;;15.90;30.00;;;;;;5051116;28;20510;-71
2022/06/21 01:45:44;;;;;;;3.60;2.60;;;15.90;30.00;;;;;;5031219;28;20489;-69
2022/06/21 01:48:18;;;;;;;3.23;2.03;;;15.90;30.30;;;;;;5034510;28;20449;-70
2022/06/21 01:50:45;;;;;;;3.10;2.30;;;15.90;30.00;;;;;;5054473;28;20554;-69
2022/06/21 01:53:11;;;;;;;2.53;2.33;;;15.90;30.70;;;;;;5054930;28;20428;-69
2022/06/21 01:55:52;;;;;;;2.20;1.63;;;15.70;31.20;;;;;;5034901;28;20419;-70
2022/06/21 01:58:23;;;;;;;2.40;2.20;;;15.30;33.00;;;;;;5034578;28;20425;-69
2022/06/21 02:01:14;;;;;;;3.27;2.50;;;15.20;34.60;;;;;;5048993;28;20460;-69
2022/06/21 02:03:42;;;;;;;3.10;2.50;;;15.30;34.40;;;;;;5053174;28;20460;-69
2022/06/21 02:06:11;;;;;;;2.37;1.73;;;15.40;33.20;;;;;;5054699;28;20447;-69
2022/06/21 02:08:43;;;;;;;3.43;2.17;;;15.30;33.70;;;;;;5054380;28;20422;-68
2022/06/21 02:11:18;;;;;;;3.00;2.27;;;15.20;34.20;;;;;;5054646;28;20438;-68
2022/06/21 02:13:48;;;;;;;3.00;2.80;;;14.90;35.30;;;;;;5054142;28;20940;-68
2022/06/21 02:16:20;;;;;;;2.70;2.30;;;14.80;36.20;;;;;;5054567;28;20407;-69
2022/06/21 02:18:50;;;;;;;2.93;2.00;;;14.90;36.00;;;;;;5061933;28;20523;-68
2022/06/21 02:21:22;;;;;;;4.07;2.13;;;14.90;35.30;;;;;;5054716;28;20460;-68
2022/06/21 02:23:52;;;;;;;2.10;1.57;;;14.80;36.40;;;;;;5054127;28;20441;-70
2022/06/21 02:26:18;;;;;;;3.30;2.40;;;14.80;36.60;;;;;;5052927;28;20828;-69
2022/06/21 02:28:46;;;;;;;2.87;2.30;;;14.90;36.30;;;;;;5052604;28;20440;-71
2022/06/21 02:31:12;;;;;;;2.50;2.17;;;14.90;35.80;;;;;;5034172;28;20444;-70
2022/06/21 02:33:39;;;;;;;3.53;2.17;;;14.90;35.90;;;;;;5032828;28;20425;-70
2022/06/21 02:36:12;;;;;;;3.80;2.13;;;15.00;35.40;;;;;;5034062;28;20426;-69
2022/06/21 02:38:56;;;;;;;3.17;1.63;;;14.70;36.80;;;;;;5044232;28;20471;-69
2022/06/21 02:41:28;;;;;;;2.40;1.90;;;14.70;36.60;;;;;;5054056;28;20935;-69
2022/06/21 02:43:57;;;;;;;4.47;2.50;;;14.50;38.00;;;;;;5052604;28;20418;-70
2022/06/21 02:46:28;;;;;;;2.40;1.40;;;14.50;37.80;;;;;;5053932;28;20456;-69
2022/06/21 02:49:03;;;;;;;2.27;1.90;;;14.40;37.20;;;;;;5053350;28;20426;-70
2022/06/21 02:51:34;;;;;;;2.93;2.63;;;14.40;37.50;;;;;;5052378;28;20456;-70
2022/06/21 02:54:08;;;;;;;3.17;2.13;;;14.40;36.70;;;;;;5053637;28;20441;-69
2022/06/21 02:56:38;;;;;;;2.60;2.13;;;14.40;36.50;;;;;;5053807;28;20896;-70
2022/06/21 02:59:04;;;;;;;2.60;1.83;;;14.40;36.00;;;;;;5051329;28;20955;-69
2022/06/21 03:01:39;;;;;;;3.03;2.30;;;14.30;36.50;;;;;;5053482;28;20482;-69
2022/06/21 03:04:06;;;;;;;2.10;1.73;;;14.20;37.40;;;;;;5053532;28;20804;-69
2022/06/21 03:06:33;;;;;;;2.10;1.67;;;14.30;37.00;;;;;;5053474;28;20825;-69
2022/06/21 03:09:06;;;;;;;2.50;1.93;;;14.50;36.20;;;;;;5053002;28;20433;-69
2022/06/21 03:11:36;;;;;;;3.40;2.47;;;14.40;36.60;;;;;;5053300;28;20432;-70
2022/06/21 03:14:08;;;;;;;2.10;1.47;;;14.30;36.90;;;;;;5052182;28;20417;-69
2022/06/21 03:16:34;;;;;;;1.77;1.53;;;14.30;37.00;;;;;;5053717;28;20417;-68
2022/06/21 03:19:05;;;;;;;2.60;2.10;;;14.40;36.30;;;;;;5053194;28;20790;-69
2022/06/21 03:21:35;;;;;;;2.23;2.00;;;14.30;36.30;;;;;;5053187;28;20441;-68
2022/06/21 03:24:05;;;;;;;4.07;2.17;;;14.20;37.50;;;;;;5051118;28;20429;-69
2022/06/21 03:26:33;;;;;;;2.70;2.20;;;14.20;37.80;;;;;;5053306;28;20454;-69
2022/06/21 03:28:59;;;;;;;2.40;2.20;;;14.30;37.30;;;;;;5052705;28;20427;-69
2022/06/21 03:31:33;;;;;;;3.77;1.90;;;14.50;36.70;;;;;;5051836;28;20496;-70
2022/06/21 03:34:08;;;;;;;2.80;1.97;;;14.60;36.90;;;;;;5053081;28;20205;-69
2022/06/21 03:36:34;;;;;;;3.27;2.03;;;14.80;36.70;;;;;;5051273;28;20418;-69
2022/06/21 03:39:06;;;;;;;3.03;2.43;;;14.90;35.50;;;;;;5051137;28;20433;-70
2022/06/21 03:41:44;;;;;;;2.33;1.87;;;15.10;35.00;;;;;;5051730;28;20443;-69
2022/06/21 03:44:28;;;;;;;2.80;2.20;;;15.30;33.30;;;;;;5036797;28;20423;-69
2022/06/21 03:46:57;;;;;;;3.17;2.13;;;15.50;32.90;;;;;;5052401;28;20453;-68
2022/06/21 03:49:42;;;;;;;3.10;2.10;;;15.50;32.40;;;;;;5051171;28;20519;-68
2022/06/21 03:52:14;;;;;;;2.30;1.93;;;15.20;33.90;;;;;;5083845;22;20873;-68
2022/06/21 03:54:48;;;;;;;6.90;2.00;;;15.10;33.40;;;;;;5072479;28;20792;-67
2022/06/21 03:57:31;;;;;;;2.20;1.77;;;15.10;34.60;;;;;;5072072;28;20564;-67
2022/06/21 04:00:01;;;;;;;2.30;1.90;;;15.30;33.30;;;;;;5072105;28;20405;-67
2022/06/21 04:02:44;;;;;;;2.63;1.90;;;15.10;32.70;;;;;;5052280;28;20815;-67
2022/06/21 04:05:31;;;;;;;2.20;1.80;;;14.90;34.10;;;;;;5052160;28;20411;-68
2022/06/21 04:07:59;;;;;;;3.00;1.90;;;15.30;33.60;;;;;;5051937;28;20422;-70
2022/06/21 04:10:41;;;;;;;3.20;2.20;;;15.60;32.90;;;;;;5052056;28;20457;-68
2022/06/21 04:13:21;;;;;;;2.53;1.93;;;15.40;32.30;;;;;;5052102;28;20403;-67
2022/06/21 04:16:16;;;;;;;1.43;1.10;;;15.20;33.00;;;;;;5050889;28;20622;-68
2022/06/21 04:18:52;;;;;;;2.47;1.60;;;15.50;33.10;;;;;;5051867;28;20415;-68
2022/06/21 04:21:24;;;;;;;4.50;2.80;;;15.70;32.20;;;;;;5050884;28;20435;-68
2022/06/21 04:23:58;;;;;;;2.50;2.10;;;15.80;29.90;;;;;;5050729;28;20409;-68
2022/06/21 04:26:39;;;;;;;2.53;2.33;;;15.80;29.80;;;;;;5050586;28;20483;-68
2022/06/21 04:29:16;;;;;;;2.50;2.00;;;16.10;29.10;;;;;;5051671;28;20782;-68
2022/06/21 04:31:49;;;;;;;4.83;2.97;;;16.40;29.00;;;;;;5051712;28;20434;-68
2022/06/21 04:34:24;;;;;;;4.47;4.07;;;16.90;26.50;;;;;;5051607;28;20412;-68
2022/06/21 04:37:11;;;;;;;4.73;4.30;;;17.20;23.70;;;;;;5051396;28;20425;-67
2022/06/21 04:39:48;;;;;;;5.47;5.17;;;17.60;23.00;;;;;;5050385;28;20931;-67
2022/06/21 04:42:16;;;;;;;5.00;4.70;;;17.90;21.50;;;;;;5051423;28;20470;-68
2022/06/21 04:45:02;;;;;;;5.80;5.50;;;18.30;21.60;;;;;;5051484;28;20412;-69
2022/06/21 04:47:33;;;;;;;7.67;7.20;;;18.70;20.00;;;;;;5051230;28;20432;-67
2022/06/21 04:50:05;;;;;;;8.80;8.40;;;19.00;18.70;;;;;;5051093;28;20404;-67
2022/06/21 04:52:44;;;;;;;9.20;8.70;;;19.30;16.10;;;;;;5051485;28;20421;-67
2022/06/21 04:55:15;;;;;;;9.57;9.17;;;19.90;15.20;;;;;;5050021;28;20459;-67
2022/06/21 04:57:41;;;;;;;11.50;11.00;;;20.40;14.30;;;;;;5050806;28;20460;-68
2022/06/21 05:00:18;;;;;;;10.93;10.43;;;20.70;11.50;;;;;;5049704;28;20505;-68
2022/06/21 05:02:48;;;;;;;12.23;11.63;;;20.90;10.70;;;;;;5051339;28;20439;-68
2022/06/21 05:05:31;;;;;;;11.67;11.17;;;21.00;9.20;;;;;;5051249;28;20452;-68
2022/06/21 05:08:09;;;;;;;11.37;10.97;;;21.20;9.90;;;;;;5031210;28;20936;-69
2022/06/21 05:10:48;;;;;;;12.10;11.40;;;21.30;8.80;;;;;;5031381;28;20449;-68
2022/06/21 05:13:37;;;;;;;12.70;12.20;;;21.50;8.60;;;;;;5031396;28;20416;-68
2022/06/21 05:16:11;;;;;;;13.37;12.47;;;21.60;8.10;;;;;;5036415;28;20515;-69
2022/06/21 05:18:45;;;;;;;12.60;12.10;;;21.60;6.80;;;;;;5051200;28;20409;-68
2022/06/21 05:21:15;;;;;;;12.80;11.90;;;21.50;7.30;;;;;;5052120;28;20488;-68
2022/06/21 05:23:41;;;;;;;12.60;12.00;;;21.60;7.30;;;;;;5056635;28;21066;-70
2022/06/21 05:26:19;;;;;;;12.07;11.60;;;21.50;7.30;;;;;;5055729;28;20457;-70
2022/06/21 05:28:51;;;;;;;12.00;11.50;;;21.50;7.60;;;;;;5052026;28;20462;-68
2022/06/21 05:31:21;;;;;;;12.50;12.00;;;21.60;6.60;;;;;;5035342;28;20931;-70
2022/06/21 05:34:20;;;;;;;13.67;12.73;;;21.70;6.30;;;;;;5033917;28;20786;-68
2022/06/21 05:37:31;;;;;;;12.53;12.03;;;21.80;6.70;;;;;;5027806;28;20472;-67
2022/06/21 05:40:00;;;;;;;12.33;11.80;;;21.80;5.40;;;;;;5031532;28;20413;-67
2022/06/21 05:42:27;;;;;;;12.30;11.80;;;21.90;5.00;;;;;;5054884;28;20409;-68
2022/06/21 05:44:55;;;;;;;12.57;12.07;;;;;;;;;;5054906;28;20418;-69
2022/06/21 05:47:47;;;;;;;13.27;12.67;;;22.20;4.80;;;;;;5054662;28;20961;-67
2022/06/21 05:50:22;;;;;;;12.77;12.23;;;23.00;5.00;;;;;;5045785;28;20425;-68
2022/06/21 05:52:52;;;;;;;13.20;12.70;;;24.10;3.20;;;;;;5054787;28;20426;-68
2022/06/21 05:55:34;;;;;;;13.37;12.80;;;25.30;1.80;;;;;;5054331;28;20425;-69
2022/06/21 05:58:05;;;;;;;14.17;13.37;;;26.30;1.00;;;;;;5054202;28;20397;-68
2022/06/21 06:00:49;;;;;;;14.03;13.43;;;27.70;1.00;;;;;;5054511;28;20452;-68
2022/06/21 06:03:27;;;;;;;14.60;14.00;;;28.50;1.00;;;;;;5054458;28;20458;-68
2022/06/21 06:05:54;;;;;;;14.20;13.60;;;29.50;1.00;;;;;;5054453;28;20812;-69
2022/06/21 06:08:29;;;;;;;14.30;13.70;;;30.20;1.00;;;;;;5054071;28;20870;-68
2022/06/21 06:10:57;;;;;;;13.50;13.00;;;30.20;1.00;;;;;;5054321;28;20440;-69
2022/06/21 06:13:32;;;;;;;14.03;13.20;;;30.90;1.00;;;;;;5052943;28;20479;-69
2022/06/21 06:16:03;;;;;;;13.30;12.80;;;31.60;1.00;;;;;;5054104;28;20433;-69
2022/06/21 06:18:47;;;;;;;14.30;13.70;;;32.00;1.00;;;;;;5053995;28;20592;-69
2022/06/21 06:21:22;;;;;;;14.60;13.90;;;32.10;1.00;;;;;;5049035;28;20453;-69
2022/06/21 06:24:02;;;;;;;14.67;13.97;;;33.00;1.00;;;;;;5034138;28;20441;-70
2022/06/21 06:26:33;;;;;;;14.00;13.50;;;33.60;1.00;;;;;;5050812;28;20468;-71
2022/06/21 06:29:06;;;;;;;13.50;13.00;;;34.20;1.00;;;;;;5053846;28;20414;-71
2022/06/21 06:31:42;;;;;;;14.57;14.07;;;34.60;1.00;;;;;;5053928;28;20428;-70
2022/06/21 06:34:12;;;;;;;13.63;13.13;;;34.80;1.00;;;;;;5052636;28;20413;-70
2022/06/21 06:36:46;;;;;;;12.90;12.40;;;34.90;1.00;;;;;;5053673;28;20444;-70
2022/06/21 06:39:22;;;;;;;13.23;12.70;;;34.50;1.00;;;;;;5053439;28;20843;-70
2022/06/21 06:42:17;;;;;;;12.90;12.30;;;34.60;1.00;;;;;;5053537;28;20421;-69
2022/06/21 06:45:11;;;;;;;12.87;12.30;;;33.70;1.00;;;;;;5052156;28;20421;-69
2022/06/21 06:47:39;;;;;;;13.50;12.80;;;28.90;1.00;;;;;;5052552;28;20424;-69
2022/06/21 06:50:20;;;;;;;42.10;14.83;;;29.40;1.00;;;;;;5053070;28;20417;-68
2022/06/21 06:52:55;;;;;;;12.30;11.80;;;29.90;1.00;;;;;;5044491;28;20441;-69
2022/06/21 06:55:28;;;;;;;12.60;12.07;;;29.60;1.00;;;;;;5052953;28;20512;-69
2022/06/21 06:58:03;;;;;;;14.27;13.30;;;29.60;1.00;;;;;;5042939;28;20777;-69
2022/06/21 07:00:52;;;;;;;14.30;13.40;;;29.40;1.00;;;;;;5033533;28;20457;-70
2022/06/21 07:03:22;;;;;;;13.30;12.70;;;29.40;1.00;;;;;;5034536;28;20824;-70
2022/06/21 07:05:57;;;;;;;13.30;12.60;;;29.40;1.00;;;;;;5049888;28;20560;-70
2022/06/21 07:08:37;;;;;;;12.13;11.73;;;29.40;1.00;;;;;;5054093;28;20411;-70
2022/06/21 07:11:32;;;;;;;12.03;11.60;;;29.00;1.00;;;;;;5051749;28;20866;-69
2022/06/21 07:14:01;;;;;;;12.70;12.20;;;29.10;1.00;;;;;;5024882;28;20831;-69
2022/06/21 07:16:30;;;;;;;13.50;13.00;;;29.40;1.00;;;;;;5049714;28;21034;-69
2022/06/21 07:18:59;;;;;;;13.37;12.87;;;29.00;1.00;;;;;;5054361;28;21018;-68
2022/06/21 07:21:25;;;;;;;13.83;13.23;;;28.80;1.00;;;;;;5048361;28;20449;-69
2022/06/21 07:23:54;;;;;;;13.53;12.83;;;28.60;1.00;;;;;;5048729;28;20417;-67
2022/06/21 07:26:36;;;;;;;14.90;13.90;;;28.60;1.00;;;;;;5042016;28;20233;-69
2022/06/21 07:29:11;;;;;;;15.53;14.63;;;28.60;1.00;;;;;;5049202;28;21004;-67
2022/06/21 07:31:43;;;;;;;14.07;13.30;;;28.40;1.00;;;;;;5041790;28;20495;-68
2022/06/21 07:34:33;;;;;;;14.17;13.57;;;28.20;1.00;;;;;;5046107;28;20536;-68
2022/06/21 07:37:04;;;;;;;13.97;13.37;;;27.90;1.00;;;;;;5047204;28;20433;-69
2022/06/21 07:39:45;;;;;;;14.27;13.33;;;27.70;1.00;;;;;;5068763;28;20947;-69
2022/06/21 07:42:27;;;;;;;14.70;14.10;;;27.20;1.00;;;;;;5070425;28;20435;-69
2022/06/21 07:44:58;;;;;;;14.07;13.53;;;27.30;1.00;;;;;;5037473;28;20499;-69
2022/06/21 07:47:29;;;;;;;14.23;13.73;;;27.40;1.00;;;;;;5046318;28;20450;-72
2022/06/21 07:50:02;;;;;;;14.20;13.60;;;27.30;1.00;;;;;;5033046;28;20425;-69
2022/06/21 07:52:39;;;;;;;14.23;13.53;;;27.20;1.00;;;;;;5035677;28;20465;-68
2022/06/21 07:55:13;;;;;;;13.87;13.23;;;27.00;1.00;;;;;;5051961;28;20517;-68
2022/06/21 07:57:47;;;;;;;13.77;13.17;;;26.70;1.00;;;;;;5052336;28;20405;-67
2022/06/21 08:00:19;;;;;;;14.00;13.43;;;27.20;1.00;;;;;;5051626;28;20764;-68
2022/06/21 08:08:37;;;;;;;13.27;12.77;;;27.80;1.00;;;;;;5051509;28;20424;-69
2022/06/21 08:11:23;;;;;;;14.80;14.00;;;28.40;1.00;;;;;;5051749;28;20444;-67
2022/06/21 08:13:49;;;;;;;14.00;13.40;;;28.50;1.00;;;;;;5051398;28;20425;-68
2022/06/21 08:16:17;;;;;;;14.80;14.10;;;28.50;1.00;;;;;;5051834;28;20439;-68
2022/06/21 08:19:00;;;;;;;14.30;13.70;;;28.50;1.00;;;;;;5051787;28;20744;-69
2022/06/21 08:21:33;;;;;;;14.00;13.40;;;27.80;1.00;;;;;;5051861;28;20440;-68
2022/06/21 08:24:16;;;;;;;14.80;13.80;;;27.90;1.00;;;;;;5051134;28;20579;-68
2022/06/21 08:26:57;;;;;;;14.00;13.50;;;27.80;1.00;;;;;;5051866;28;20472;-67
2022/06/21 08:29:43;;;;;;;14.40;13.80;;;27.80;1.00;;;;;;5051542;28;20406;-69
2022/06/21 08:32:31;;;;;;;13.80;13.20;;;27.80;1.00;;;;;;5051568;28;20433;-68
2022/06/21 08:35:13;;;;;;;14.83;14.23;;;27.90;1.00;;;;;;5049172;28;20918;-68
2022/06/21 08:37:51;;;;;;;14.40;13.80;;;27.90;1.00;;;;;;5050245;28;20439;-68
2022/06/21 08:40:47;;;;;;;14.13;13.53;;;27.70;1.00;;;;;;5050149;28;20809;-68
2022/06/21 08:43:41;;;;;;;14.50;13.90;;;27.20;1.00;;;;;;5050372;28;20413;-69
2022/06/21 08:46:28;;;;;;;14.10;13.60;;;27.20;1.00;;;;;;5050301;28;20511;-68
2022/06/21 08:49:01;;;;;;;14.40;13.80;;;27.50;1.00;;;;;;5049308;28;20417;-69
2022/06/21 08:52:05;;;;;;;14.67;13.97;;;27.50;1.00;;;;;;5051133;28;20619;-68
2022/06/21 08:54:52;;;;;;;13.77;13.27;;;27.30;1.00;;;;;;5050712;28;20778;-68
2022/06/21 08:58:00;;;;;;;14.70;14.00;;;26.90;1.00;;;;;;5051368;28;20503;-68
2022/06/21 09:00:37;;;;;;;15.37;14.67;;;26.90;1.00;;;;;;5054230;28;20433;-67
2022/06/21 09:03:38;;;;;;;13.17;12.67;;;26.60;1.00;;;;;;5052886;28;20442;-67
2022/06/21 09:06:18;;;;;;;13.93;13.43;;;27.10;1.00;;;;;;5053824;28;20538;-68
2022/06/21 09:08:46;;;;;;;14.63;13.73;;;27.70;1.00;;;;;;5053962;28;20492;-67
2022/06/21 09:11:17;;;;;;;13.43;12.90;;;28.10;1.00;;;;;;5053926;28;20806;-67
2022/06/21 09:14:10;;;;;;;14.40;13.80;;;28.40;1.00;;;;;;5053960;28;20409;-68
2022/06/21 09:17:08;;;;;;;14.80;14.20;;;28.50;1.00;;;;;;5053891;28;20915;-68
2022/06/21 09:19:58;;;;;;;14.97;14.10;;;28.00;1.00;;;;;;5050373;28;20425;-66
2022/06/21 09:23:00;;;;;;;15.30;14.50;;;27.60;1.00;;;;;;5053653;28;20425;-68
2022/06/21 09:25:39;;;;;;;14.43;13.83;;;28.00;1.00;;;;;;5053644;28;20496;-68
2022/06/21 09:28:25;;;;;;;14.27;13.67;;;28.40;1.00;;;;;;5053591;28;20409;-68
2022/06/21 09:31:25;;;;;;;14.53;13.57;;;28.60;1.00;;;;;;5052532;28;20474;-69
2022/06/21 09:34:23;;;;;;;13.93;13.33;;;28.60;1.00;;;;;;5016623;28;20447;-69
2022/06/21 09:36:55;;;;;;;12.90;12.40;;;28.60;1.00;;;;;;5053547;28;20772;-70
2022/06/21 09:39:31;;;;;;;14.10;13.50;;;28.50;1.00;;;;;;5053223;28;20409;-68
2022/06/21 09:41:57;;;;;;;14.10;13.50;;;28.40;1.00;;;;;;5053529;28;20436;-68
2022/06/21 09:44:29;;;;;;;13.50;12.90;;;28.30;1.00;;;;;;5053380;28;20425;-67
2022/06/21 09:47:09;;;;;;;14.67;13.80;;;28.30;1.00;;;;;;5053933;28;20202;-69
2022/06/21 09:49:54;;;;;;;13.80;13.20;;;27.10;2.30;;;;;;5053148;28;20407;-69
2022/06/21 09:52:34;;;;;;;14.27;13.60;;;27.00;2.70;;;;;;5060282;22;1039506;-67
2022/06/21 09:55:27;;;;;;;14.07;13.47;;;26.50;2.70;;;;;;5078981;28;20201;-67
2022/06/21 09:58:18;;;;;;;13.83;13.23;;;26.50;3.30;;;;;;5077709;28;20412;-68
2022/06/21 10:00:50;;;;;;;13.23;12.60;;;26.70;3.30;;;;;;5078286;28;20416;-68
2022/06/21 10:03:53;;;;;;;13.47;12.87;;;26.20;4.30;;;;;;5076253;28;20451;-68
2022/06/21 10:06:41;;;;;;;13.53;12.93;;;25.90;5.10;;;;;;5077430;28;20458;-68
2022/06/21 10:09:29;;;;;;;13.30;12.60;;;25.90;4.80;;;;;;5080138;28;20416;-68
2022/06/21 10:12:13;;;;;;;13.10;12.60;;;25.10;6.10;;;;;;5080592;28;20977;-68
2022/06/21 10:14:50;;;;;;;14.07;13.40;;;25.60;6.40;;;;;;5079110;28;20451;-68
2022/06/21 10:17:25;;;;;;;13.90;13.30;;;26.00;5.70;;;;;;5081562;28;20499;-69
2022/06/21 10:20:34;;;;;;;12.23;11.70;;;25.70;6.20;;;;;;5077596;28;20453;-68
2022/06/21 10:23:13;;;;;;;12.57;12.00;;;25.10;6.50;;;;;;5076572;28;20495;-68
2022/06/21 10:26:17;;;;;;;13.23;12.63;;;25.40;7.00;;;;;;5076166;28;20477;-68
2022/06/21 10:29:10;;;;;;;13.20;12.60;;;24.90;6.80;;;;;;5078509;28;20408;-68
2022/06/21 10:31:55;;;;;;;12.40;11.90;;;25.00;7.20;;;;;;5074634;28;20433;-69
2022/06/21 10:34:54;;;;;;;13.17;12.67;;;24.70;7.60;;;;;;5074412;28;20492;-69
2022/06/21 10:37:44;;;;;;;13.50;12.60;;;24.90;7.60;;;;;;5074636;28;20775;-69
2022/06/21 10:40:13;;;;;;;13.63;13.07;;;24.60;7.70;;;;;;5074702;28;20411;-69
2022/06/21 10:43:11;;;;;;;13.23;12.63;;;24.30;8.90;;;;;;5073388;28;20478;-69
2022/06/21 10:45:46;;;;;;;12.60;12.10;;;24.30;8.60;;;;;;5074616;28;20894;-69
2022/06/21 10:48:49;;;;;;;12.60;12.00;;;24.30;8.80;;;;;;5074287;28;20439;-68
2022/06/21 10:51:40;;;;;;;13.10;12.40;;;24.60;8.70;;;;;;5064506;28;20890;-69
2022/06/21 10:54:17;;;;;;;13.80;13.20;;;25.10;7.90;;;;;;5073834;28;20408;-69
2022/06/21 10:57:29;;;;;;;13.70;13.10;;;25.30;7.30;;;;;;5072664;28;20416;-69
2022/06/21 11:03:13;;;;;;;14.30;13.60;;;25.10;8.40;;;;;;5073942;28;20424;-69
2022/06/21 11:06:16;;;;;;;13.63;12.93;;;25.10;8.70;;;;;;5037215;28;20478;-69
2022/06/21 11:09:24;;;;;;;13.13;12.43;;;25.20;8.90;;;;;;5067579;28;20784;-69
2022/06/21 11:11:50;;;;;;;12.70;12.10;;;25.60;8.60;;;;;;5054494;28;20449;-68
2022/06/21 11:14:48;;;;;;;14.30;13.70;;;26.10;8.20;;;;;;5066951;28;20438;-68
2022/06/21 11:17:52;;;;;;;15.30;14.30;;;26.40;8.50;;;;;;5073175;28;20173;-69
2022/06/21 11:20:25;;;;;;;14.70;14.00;;;26.80;8.30;;;;;;5053201;28;21008;-69
2022/06/21 11:23:14;;;;;;;14.70;14.10;;;27.20;7.80;;;;;;5053180;28;20397;-69
2022/06/21 11:26:10;;;;;;;14.03;13.43;;;27.30;6.90;;;;;;5051800;28;20870;-69
2022/06/21 11:28:47;;;;;;;14.73;13.93;;;27.10;7.40;;;;;;5052973;28;20471;-69
2022/06/21 11:31:49;;;;;;;13.40;12.80;;;27.10;6.80;;;;;;5059729;28;20424;-70
2022/06/21 11:34:28;;;;;;;14.50;13.80;;;27.00;7.40;;;;;;5073271;28;20414;-68
2022/06/21 11:37:22;;;;;;;15.00;14.23;;;27.30;7.60;;;;;;5073172;28;20514;-69
2022/06/21 11:40:05;;;;;;;15.30;14.47;;;27.60;7.70;;;;;;5072492;28;20404;-68
2022/06/21 11:42:46;;;;;;;15.77;14.70;;;28.00;7.40;;;;;;5072705;28;20884;-69
2022/06/21 11:45:39;;;;;;;14.70;14.10;;;28.40;6.50;;;;;;5072689;28;20820;-69
2022/06/21 11:48:35;;;;;;;15.47;14.57;;;28.90;6.00;;;;;;5072379;28;20415;-69
2022/06/21 11:51:09;;;;;;;15.00;14.30;;;29.00;5.20;;;;;;5072758;28;20444;-69
2022/06/21 11:54:10;;;;;;;16.67;15.80;;;29.10;5.50;;;;;;5072557;28;20403;-69
2022/06/21 11:57:03;;;;;;;16.67;15.87;;;29.30;5.00;;;;;;5050125;28;20436;-68
2022/06/21 11:59:46;;;;;;;15.60;14.80;;;29.70;4.70;;;;;;5072221;28;20400;-68
2022/06/21 12:02:36;;;;;;;15.30;14.60;;;30.00;4.30;;;;;;5072165;28;20438;-68
2022/06/21 12:05:20;;;;;;;16.03;15.20;;;30.20;4.40;;;;;;5053805;28;20427;-70
2022/06/21 12:08:04;;;;;;;14.87;14.17;;;30.50;4.60;;;;;;5059535;28;20411;-69
2022/06/21 12:10:46;;;;;;;15.50;14.50;;;30.50;4.60;;;;;;5062210;28;20440;-69
2022/06/21 12:13:24;;;;;;;16.00;15.20;;;30.50;4.20;;;;;;5063129;28;20435;-68
2022/06/21 12:16:01;;;;;;;15.50;14.70;;;30.60;3.90;;;;;;5052020;28;20842;-68
2022/06/21 12:18:32;;;;;;;16.27;15.30;;;30.50;3.80;;;;;;5061126;28;20498;-68
2022/06/21 12:21:03;;;;;;;15.43;14.63;;;30.40;4.50;;;;;;5059810;28;20531;-68
2022/06/21 12:23:41;;;;;;;15.20;14.40;;;30.30;4.50;;;;;;5051189;28;20432;-70
2022/06/21 12:26:12;;;;;;;15.70;15.00;;;30.10;4.30;;;;;;5052004;28;20460;-70
2022/06/21 12:28:39;;;;;;;15.60;14.90;;;30.10;4.30;;;;;;5051783;28;20413;-69
2022/06/21 12:31:30;;;;;;;16.13;15.33;;;30.10;4.30;;;;;;5063967;28;20781;-69
2022/06/21 12:34:09;;;;;;;15.10;14.40;;;30.00;4.30;;;;;;5072201;28;20511;-69
2022/06/21 12:36:53;;;;;;;15.30;14.47;;;30.00;4.50;;;;;;5071771;28;20493;-69
2022/06/21 12:39:48;;;;;;;16.37;15.00;;;30.40;4.50;;;;;;5067060;28;20425;-70
2022/06/21 12:42:34;;;;;;;15.83;15.03;;;30.80;4.30;;;;;;5066302;28;20444;-69
2022/06/21 12:45:13;;;;;;;16.17;15.37;;;31.10;3.30;;;;;;5063344;28;20448;-68
2022/06/21 12:48:18;;;;;;;17.53;16.33;;;31.10;3.00;;;;;;5058347;28;20727;-67
2022/06/21 12:50:46;;;;;;;16.87;15.97;;;31.10;3.00;;;;;;5048104;28;20991;-68
2022/06/21 12:53:24;;;;;;;15.53;14.63;;;30.80;3.50;;;;;;5047903;28;20488;-68
2022/06/21 12:56:20;;;;;;;15.83;15.03;;;30.60;4.30;;;;;;5047934;28;20428;-67
2022/06/21 12:59:04;;;;;;;15.20;14.40;;;30.50;4.60;;;;;;5048767;28;20492;-67
2022/06/21 13:01:55;;;;;;;17.40;16.40;;;30.50;4.40;;;;;;5072650;28;20786;-66
2022/06/21 13:04:57;;;;;;;15.13;14.43;;;30.50;4.30;;;;;;5084659;28;20419;-68
2022/06/21 13:07:41;;;;;;;17.87;16.40;;;30.30;4.50;;;;;;5088005;28;20513;-68
2022/06/21 13:10:26;;;;;;;15.53;14.83;;;30.30;4.50;;;;;;5088845;28;20751;-68
2022/06/21 13:13:23;;;;;;;15.93;15.13;;;30.20;4.40;;;;;;5089118;28;21018;-67
2022/06/21 13:16:20;;;;;;;18.53;16.93;;;30.10;4.30;;;;;;5089399;28;20490;-68
2022/06/21 13:18:56;;;;;;;17.70;16.00;;;30.10;4.30;;;;;;5087592;28;20556;-68
2022/06/21 13:21:36;;;;;;;16.20;15.30;;;30.00;4.30;;;;;;5089910;28;20434;-68
2022/06/21 13:24:22;;;;;;;15.60;14.70;;;29.90;4.20;;;;;;5089011;28;20411;-68
2022/06/21 13:27:09;;;;;;;15.33;14.63;;;29.90;4.20;;;;;;5090885;28;20486;-68
2022/06/21 13:29:47;;;;;;;15.77;14.97;;;29.60;4.10;;;;;;5091794;28;20407;-69
2022/06/21 13:32:20;;;;;;;17.00;16.10;;;29.40;4.40;;;;;;5091165;28;20458;-67
2022/06/21 13:35:17;;;;;;;16.13;15.20;;;29.60;4.10;;;;;;5091897;28;20408;-68
2022/06/21 13:38:00;;;;;;;16.03;15.13;;;28.90;4.60;;;;;;5088982;28;20427;-68
2022/06/21 13:40:42;;;;;;;15.50;14.80;;;28.70;5.80;;;;;;5086776;28;20797;-69
2022/06/21 13:43:12;;;;;;;16.00;15.00;;;29.10;5.50;;;;;;5088150;28;20905;-68
2022/06/21 13:45:53;;;;;;;15.23;14.53;;;29.40;4.80;;;;;;5072118;28;20451;-68
2022/06/21 13:48:34;;;;;;;14.47;13.77;;;29.50;4.00;;;;;;5070872;28;20424;-67